sensor_id;sensor_type;location;lat;lon;timestamp;P1;durP1;ratioP1;P2;durP2;ratioP2
14975;SDS011;7584;60.468;25.126;2023-07-29T00:01:40;3.43;;;1.50;;
14975;SDS011;7584;60.468;25.126;2023-07-29T00:04:06;2.33;;;1.60;;
14975;SDS011;7584;60.468;25.126;2023-07-29T00:06:31;3.60;;;1.50;;
14975;SDS011;7584;60.468;25.126;2023-07-29T00:08:56;2.40;;;1.40;;
14975;SDS011;7584;60.468;25.126;2023-07-29T00:11:22;1.77;;;1.47;;
14975;SDS011;7584;60.468;25.126;2023-07-29T00:13:47;2.20;;;1.97;;
14975;SDS011;7584;60.468;25.126;2023-07-29T00:16:15;2.70;;;1.73;;
14975;SDS011;7584;60.468;25.126;2023-07-29T00:18:42;2.50;;;1.77;;
14975;SDS011;7584;60.468;25.126;2023-07-29T00:21:07;1.50;;;1.30;;
14975;SDS011;7584;60.468;25.126;2023-07-29T00:23:32;2.27;;;1.60;;
14975;SDS011;7584;60.468;25.126;2023-07-29T00:25:58;2.73;;;1.80;;
14975;SDS011;7584;60.468;25.126;2023-07-29T00:28:23;3.80;;;2.17;;
14975;SDS011;7584;60.468;25.126;2023-07-29T00:30:48;3.53;;;1.50;;
14975;SDS011;7584;60.468;25.126;2023-07-29T00:33:13;2.57;;;1.63;;
14975;SDS011;7584;60.468;25.126;2023-07-29T00:35:39;3.67;;;1.53;;
14975;SDS011;7584;60.468;25.126;2023-07-29T00:38:04;2.43;;;1.60;;
14975;SDS011;7584;60.468;25.126;2023-07-29T00:40:29;4.87;;;1.77;;
14975;SDS011;7584;60.468;25.126;2023-07-29T00:42:56;2.90;;;1.43;;
14975;SDS011;7584;60.468;25.126;2023-07-29T00:45:21;2.47;;;1.60;;
14975;SDS011;7584;60.468;25.126;2023-07-29T00:47:46;2.33;;;1.57;;
14975;SDS011;7584;60.468;25.126;2023-07-29T00:50:13;2.20;;;1.60;;
14975;SDS011;7584;60.468;25.126;2023-07-29T00:52:38;4.20;;;2.03;;
14975;SDS011;7584;60.468;25.126;2023-07-29T00:55:04;4.30;;;1.77;;
14975;SDS011;7584;60.468;25.126;2023-07-29T00:57:30;2.50;;;1.40;;
14975;SDS011;7584;60.468;25.126;2023-07-29T00:59:56;2.83;;;1.70;;
14975;SDS011;7584;60.468;25.126;2023-07-29T01:02:22;4.47;;;1.60;;
14975;SDS011;7584;60.468;25.126;2023-07-29T01:04:54;3.10;;;1.57;;
14975;SDS011;7584;60.468;25.126;2023-07-29T01:12:18;7.10;;;1.73;;
14975;SDS011;7584;60.468;25.126;2023-07-29T01:17:15;1.50;;;1.07;;
14975;SDS011;7584;60.468;25.126;2023-07-29T01:22:14;2.73;;;1.50;;
14975;SDS011;7584;60.468;25.126;2023-07-29T01:24:41;2.90;;;1.47;;
14975;SDS011;7584;60.468;25.126;2023-07-29T01:27:06;1.93;;;1.70;;
14975;SDS011;7584;60.468;25.126;2023-07-29T01:29:31;3.37;;;1.60;;
14975;SDS011;7584;60.468;25.126;2023-07-29T01:31:58;3.67;;;1.90;;
14975;SDS011;7584;60.468;25.126;2023-07-29T01:34:28;3.83;;;1.80;;
14975;SDS011;7584;60.468;25.126;2023-07-29T01:36:54;2.03;;;1.63;;
14975;SDS011;7584;60.468;25.126;2023-07-29T01:39:21;4.67;;;1.67;;
14975;SDS011;7584;60.468;25.126;2023-07-29T01:41:48;4.63;;;1.60;;
14975;SDS011;7584;60.468;25.126;2023-07-29T01:44:13;2.50;;;1.73;;
14975;SDS011;7584;60.468;25.126;2023-07-29T01:46:39;3.00;;;1.83;;
14975;SDS011;7584;60.468;25.126;2023-07-29T01:49:04;2.43;;;1.37;;
14975;SDS011;7584;60.468;25.126;2023-07-29T01:51:29;8.10;;;2.20;;
14975;SDS011;7584;60.468;25.126;2023-07-29T01:53:54;3.90;;;1.30;;
14975;SDS011;7584;60.468;25.126;2023-07-29T01:56:20;3.63;;;1.67;;
14975;SDS011;7584;60.468;25.126;2023-07-29T01:58:45;5.23;;;2.10;;
14975;SDS011;7584;60.468;25.126;2023-07-29T02:01:11;2.23;;;1.53;;
14975;SDS011;7584;60.468;25.126;2023-07-29T02:03:36;2.63;;;1.50;;
14975;SDS011;7584;60.468;25.126;2023-07-29T02:06:01;1.67;;;1.40;;
14975;SDS011;7584;60.468;25.126;2023-07-29T02:08:27;2.87;;;1.70;;
14975;SDS011;7584;60.468;25.126;2023-07-29T02:10:52;2.67;;;1.63;;
14975;SDS011;7584;60.468;25.126;2023-07-29T02:13:17;2.87;;;1.60;;
14975;SDS011;7584;60.468;25.126;2023-07-29T02:15:43;2.07;;;1.60;;
14975;SDS011;7584;60.468;25.126;2023-07-29T02:18:09;3.17;;;1.40;;
14975;SDS011;7584;60.468;25.126;2023-07-29T02:20:34;2.73;;;1.70;;
14975;SDS011;7584;60.468;25.126;2023-07-29T02:22:59;3.30;;;1.70;;
14975;SDS011;7584;60.468;25.126;2023-07-29T02:25:25;2.10;;;1.90;;
14975;SDS011;7584;60.468;25.126;2023-07-29T02:27:50;2.67;;;1.60;;
14975;SDS011;7584;60.468;25.126;2023-07-29T02:30:15;4.17;;;1.70;;
14975;SDS011;7584;60.468;25.126;2023-07-29T02:32:40;3.37;;;1.60;;
14975;SDS011;7584;60.468;25.126;2023-07-29T02:35:06;3.03;;;1.57;;
14975;SDS011;7584;60.468;25.126;2023-07-29T02:37:31;3.33;;;1.70;;
14975;SDS011;7584;60.468;25.126;2023-07-29T02:39:57;1.77;;;1.63;;
14975;SDS011;7584;60.468;25.126;2023-07-29T02:42:22;2.80;;;1.83;;
14975;SDS011;7584;60.468;25.126;2023-07-29T02:44:47;8.17;;;2.10;;
14975;SDS011;7584;60.468;25.126;2023-07-29T02:47:13;1.40;;;1.30;;
14975;SDS011;7584;60.468;25.126;2023-07-29T02:49:38;2.70;;;1.70;;
14975;SDS011;7584;60.468;25.126;2023-07-29T02:52:03;2.90;;;1.70;;
14975;SDS011;7584;60.468;25.126;2023-07-29T02:54:29;2.70;;;1.87;;
14975;SDS011;7584;60.468;25.126;2023-07-29T02:56:54;2.33;;;1.73;;
14975;SDS011;7584;60.468;25.126;2023-07-29T02:59:19;2.47;;;1.63;;
14975;SDS011;7584;60.468;25.126;2023-07-29T03:01:45;4.13;;;1.60;;
14975;SDS011;7584;60.468;25.126;2023-07-29T03:04:10;2.37;;;1.50;;
14975;SDS011;7584;60.468;25.126;2023-07-29T03:06:38;2.17;;;1.70;;
14975;SDS011;7584;60.468;25.126;2023-07-29T03:09:03;2.37;;;1.60;;
14975;SDS011;7584;60.468;25.126;2023-07-29T03:11:28;4.90;;;1.60;;
14975;SDS011;7584;60.468;25.126;2023-07-29T03:13:53;2.73;;;1.40;;
14975;SDS011;7584;60.468;25.126;2023-07-29T03:16:19;2.57;;;1.30;;
14975;SDS011;7584;60.468;25.126;2023-07-29T03:18:44;3.40;;;1.50;;
14975;SDS011;7584;60.468;25.126;2023-07-29T03:21:10;4.00;;;1.70;;
14975;SDS011;7584;60.468;25.126;2023-07-29T03:23:36;3.30;;;1.60;;
14975;SDS011;7584;60.468;25.126;2023-07-29T03:26:02;3.37;;;1.40;;
14975;SDS011;7584;60.468;25.126;2023-07-29T03:28:30;2.93;;;1.27;;
14975;SDS011;7584;60.468;25.126;2023-07-29T03:30:55;2.23;;;1.50;;
14975;SDS011;7584;60.468;25.126;2023-07-29T03:33:20;2.23;;;1.37;;
14975;SDS011;7584;60.468;25.126;2023-07-29T03:35:46;1.77;;;1.47;;
14975;SDS011;7584;60.468;25.126;2023-07-29T03:38:12;4.03;;;1.70;;
14975;SDS011;7584;60.468;25.126;2023-07-29T03:40:38;1.83;;;1.30;;
14975;SDS011;7584;60.468;25.126;2023-07-29T03:43:03;3.33;;;1.47;;
14975;SDS011;7584;60.468;25.126;2023-07-29T03:45:29;1.83;;;1.10;;
14975;SDS011;7584;60.468;25.126;2023-07-29T03:47:54;2.70;;;1.40;;
14975;SDS011;7584;60.468;25.126;2023-07-29T03:50:20;3.37;;;1.67;;
14975;SDS011;7584;60.468;25.126;2023-07-29T03:52:45;5.30;;;1.17;;
14975;SDS011;7584;60.468;25.126;2023-07-29T03:55:11;1.17;;;1.00;;
14975;SDS011;7584;60.468;25.126;2023-07-29T03:57:36;1.20;;;1.07;;
14975;SDS011;7584;60.468;25.126;2023-07-29T04:00:01;3.60;;;1.27;;
14975;SDS011;7584;60.468;25.126;2023-07-29T04:02:27;2.27;;;1.33;;
14975;SDS011;7584;60.468;25.126;2023-07-29T04:04:52;2.03;;;1.10;;
14975;SDS011;7584;60.468;25.126;2023-07-29T04:07:17;2.30;;;0.97;;
14975;SDS011;7584;60.468;25.126;2023-07-29T04:09:43;2.47;;;1.30;;
14975;SDS011;7584;60.468;25.126;2023-07-29T04:12:08;1.70;;;0.87;;
14975;SDS011;7584;60.468;25.126;2023-07-29T04:14:34;1.60;;;0.87;;
14975;SDS011;7584;60.468;25.126;2023-07-29T04:16:59;1.33;;;1.00;;
14975;SDS011;7584;60.468;25.126;2023-07-29T04:19:24;4.07;;;1.10;;
14975;SDS011;7584;60.468;25.126;2023-07-29T04:21:50;3.57;;;1.27;;
14975;SDS011;7584;60.468;25.126;2023-07-29T04:24:16;3.47;;;1.00;;
14975;SDS011;7584;60.468;25.126;2023-07-29T04:26:41;2.80;;;0.97;;
14975;SDS011;7584;60.468;25.126;2023-07-29T04:29:06;2.33;;;0.90;;
14975;SDS011;7584;60.468;25.126;2023-07-29T04:31:31;1.77;;;0.90;;
14975;SDS011;7584;60.468;25.126;2023-07-29T04:33:57;2.92;;;1.00;;
14975;SDS011;7584;60.468;25.126;2023-07-29T04:36:22;0.93;;;0.80;;
14975;SDS011;7584;60.468;25.126;2023-07-29T04:38:47;2.23;;;0.90;;
14975;SDS011;7584;60.468;25.126;2023-07-29T04:41:13;2.27;;;0.90;;
14975;SDS011;7584;60.468;25.126;2023-07-29T04:43:38;1.67;;;1.10;;
14975;SDS011;7584;60.468;25.126;2023-07-29T04:46:06;2.15;;;1.00;;
14975;SDS011;7584;60.468;25.126;2023-07-29T04:48:31;1.85;;;0.95;;
14975;SDS011;7584;60.468;25.126;2023-07-29T04:50:56;1.77;;;0.88;;
14975;SDS011;7584;60.468;25.126;2023-07-29T04:53:22;1.10;;;0.90;;
14975;SDS011;7584;60.468;25.126;2023-07-29T04:55:47;1.33;;;0.90;;
14975;SDS011;7584;60.468;25.126;2023-07-29T04:58:12;2.00;;;1.13;;
14975;SDS011;7584;60.468;25.126;2023-07-29T05:00:38;1.30;;;0.82;;
14975;SDS011;7584;60.468;25.126;2023-07-29T05:03:03;2.03;;;0.73;;
14975;SDS011;7584;60.468;25.126;2023-07-29T05:05:28;1.25;;;0.93;;
14975;SDS011;7584;60.468;25.126;2023-07-29T05:07:53;1.10;;;0.70;;
14975;SDS011;7584;60.468;25.126;2023-07-29T05:10:19;1.30;;;0.93;;
14975;SDS011;7584;60.468;25.126;2023-07-29T05:12:44;1.27;;;0.85;;
14975;SDS011;7584;60.468;25.126;2023-07-29T05:15:10;1.33;;;0.65;;
14975;SDS011;7584;60.468;25.126;2023-07-29T05:17:35;3.25;;;0.95;;
14975;SDS011;7584;60.468;25.126;2023-07-29T05:20:00;1.55;;;0.80;;
14975;SDS011;7584;60.468;25.126;2023-07-29T05:22:26;1.13;;;0.60;;
14975;SDS011;7584;60.468;25.126;2023-07-29T05:24:51;1.58;;;0.80;;
14975;SDS011;7584;60.468;25.126;2023-07-29T05:27:16;2.00;;;0.90;;
14975;SDS011;7584;60.468;25.126;2023-07-29T05:29:42;1.85;;;1.00;;
14975;SDS011;7584;60.468;25.126;2023-07-29T05:32:07;0.85;;;0.80;;
14975;SDS011;7584;60.468;25.126;2023-07-29T05:34:32;1.83;;;0.70;;
14975;SDS011;7584;60.468;25.126;2023-07-29T05:36:58;1.63;;;0.80;;
14975;SDS011;7584;60.468;25.126;2023-07-29T05:39:23;1.60;;;0.65;;
14975;SDS011;7584;60.468;25.126;2023-07-29T05:41:49;2.85;;;0.70;;
14975;SDS011;7584;60.468;25.126;2023-07-29T05:44:14;1.85;;;0.70;;
14975;SDS011;7584;60.468;25.126;2023-07-29T05:46:40;1.73;;;0.80;;
14975;SDS011;7584;60.468;25.126;2023-07-29T05:49:05;0.80;;;0.50;;
14975;SDS011;7584;60.468;25.126;2023-07-29T05:51:30;1.20;;;0.60;;
14975;SDS011;7584;60.468;25.126;2023-07-29T05:53:55;2.67;;;0.68;;
14975;SDS011;7584;60.468;25.126;2023-07-29T05:56:21;1.80;;;0.77;;
14975;SDS011;7584;60.468;25.126;2023-07-29T05:58:46;1.20;;;0.80;;
14975;SDS011;7584;60.468;25.126;2023-07-29T06:01:11;4.78;;;0.80;;
14975;SDS011;7584;60.468;25.126;2023-07-29T06:03:37;2.33;;;0.73;;
14975;SDS011;7584;60.468;25.126;2023-07-29T06:06:02;1.75;;;0.70;;
14975;SDS011;7584;60.468;25.126;2023-07-29T06:08:27;1.35;;;0.63;;
14975;SDS011;7584;60.468;25.126;2023-07-29T06:10:59;1.35;;;0.68;;
14975;SDS011;7584;60.468;25.126;2023-07-29T06:13:24;2.47;;;0.90;;
14975;SDS011;7584;60.468;25.126;2023-07-29T06:15:49;1.77;;;0.70;;
14975;SDS011;7584;60.468;25.126;2023-07-29T06:18:15;3.13;;;0.60;;
14975;SDS011;7584;60.468;25.126;2023-07-29T06:20:40;0.93;;;0.70;;
14975;SDS011;7584;60.468;25.126;2023-07-29T06:23:05;1.58;;;0.60;;
14975;SDS011;7584;60.468;25.126;2023-07-29T06:25:31;0.70;;;0.60;;
14975;SDS011;7584;60.468;25.126;2023-07-29T06:27:56;2.05;;;0.75;;
14975;SDS011;7584;60.468;25.126;2023-07-29T06:30:23;0.88;;;0.68;;
14975;SDS011;7584;60.468;25.126;2023-07-29T06:32:48;3.30;;;0.80;;
14975;SDS011;7584;60.468;25.126;2023-07-29T06:35:13;1.83;;;0.80;;
14975;SDS011;7584;60.468;25.126;2023-07-29T06:37:39;0.82;;;0.50;;
14975;SDS011;7584;60.468;25.126;2023-07-29T06:40:04;1.67;;;0.93;;
14975;SDS011;7584;60.468;25.126;2023-07-29T06:42:30;1.33;;;0.60;;
14975;SDS011;7584;60.468;25.126;2023-07-29T06:44:55;1.23;;;0.60;;
14975;SDS011;7584;60.468;25.126;2023-07-29T06:47:21;2.85;;;0.75;;
14975;SDS011;7584;60.468;25.126;2023-07-29T06:49:46;1.45;;;0.75;;
14975;SDS011;7584;60.468;25.126;2023-07-29T06:52:12;3.50;;;0.90;;
14975;SDS011;7584;60.468;25.126;2023-07-29T06:54:37;1.63;;;0.90;;
14975;SDS011;7584;60.468;25.126;2023-07-29T06:57:02;1.50;;;0.80;;
14975;SDS011;7584;60.468;25.126;2023-07-29T06:59:28;1.27;;;0.68;;
14975;SDS011;7584;60.468;25.126;2023-07-29T07:01:53;1.23;;;0.70;;
14975;SDS011;7584;60.468;25.126;2023-07-29T07:04:18;1.98;;;0.65;;
14975;SDS011;7584;60.468;25.126;2023-07-29T07:06:44;1.92;;;0.70;;
14975;SDS011;7584;60.468;25.126;2023-07-29T07:09:09;1.05;;;0.65;;
14975;SDS011;7584;60.468;25.126;2023-07-29T07:11:34;1.77;;;0.68;;
14975;SDS011;7584;60.468;25.126;2023-07-29T07:13:59;2.28;;;0.80;;
14975;SDS011;7584;60.468;25.126;2023-07-29T07:16:25;1.85;;;0.70;;
14975;SDS011;7584;60.468;25.126;2023-07-29T07:18:51;1.67;;;0.75;;
14975;SDS011;7584;60.468;25.126;2023-07-29T07:21:16;1.20;;;0.60;;
14975;SDS011;7584;60.468;25.126;2023-07-29T07:23:41;0.75;;;0.55;;
14975;SDS011;7584;60.468;25.126;2023-07-29T07:26:07;4.45;;;0.88;;
14975;SDS011;7584;60.468;25.126;2023-07-29T07:28:32;1.95;;;0.70;;
14975;SDS011;7584;60.468;25.126;2023-07-29T07:30:57;3.15;;;0.80;;
14975;SDS011;7584;60.468;25.126;2023-07-29T07:33:23;1.60;;;0.80;;
14975;SDS011;7584;60.468;25.126;2023-07-29T07:35:48;3.38;;;1.02;;
14975;SDS011;7584;60.468;25.126;2023-07-29T07:38:13;2.22;;;0.63;;
14975;SDS011;7584;60.468;25.126;2023-07-29T07:40:38;2.95;;;1.02;;
14975;SDS011;7584;60.468;25.126;2023-07-29T07:43:04;1.27;;;0.70;;
14975;SDS011;7584;60.468;25.126;2023-07-29T07:45:29;2.17;;;0.82;;
14975;SDS011;7584;60.468;25.126;2023-07-29T07:47:55;2.50;;;0.80;;
14975;SDS011;7584;60.468;25.126;2023-07-29T07:50:21;1.13;;;0.70;;
14975;SDS011;7584;60.468;25.126;2023-07-29T07:52:46;2.15;;;0.75;;
14975;SDS011;7584;60.468;25.126;2023-07-29T07:55:11;2.58;;;0.70;;
14975;SDS011;7584;60.468;25.126;2023-07-29T07:57:37;1.33;;;0.85;;
14975;SDS011;7584;60.468;25.126;2023-07-29T08:00:02;2.42;;;0.95;;
14975;SDS011;7584;60.468;25.126;2023-07-29T08:02:29;0.77;;;0.70;;
14975;SDS011;7584;60.468;25.126;2023-07-29T08:04:54;1.05;;;0.60;;
14975;SDS011;7584;60.468;25.126;2023-07-29T08:07:19;1.27;;;0.65;;
14975;SDS011;7584;60.468;25.126;2023-07-29T08:09:45;2.78;;;0.70;;
14975;SDS011;7584;60.468;25.126;2023-07-29T08:12:10;2.00;;;0.65;;
14975;SDS011;7584;60.468;25.126;2023-07-29T08:14:35;0.80;;;0.57;;
14975;SDS011;7584;60.468;25.126;2023-07-29T08:17:00;1.25;;;0.70;;
14975;SDS011;7584;60.468;25.126;2023-07-29T08:19:26;1.25;;;0.50;;
14975;SDS011;7584;60.468;25.126;2023-07-29T08:21:52;2.42;;;0.85;;
14975;SDS011;7584;60.468;25.126;2023-07-29T08:24:17;0.95;;;0.68;;
14975;SDS011;7584;60.468;25.126;2023-07-29T08:26:43;1.23;;;0.70;;
14975;SDS011;7584;60.468;25.126;2023-07-29T08:29:08;2.15;;;0.68;;
14975;SDS011;7584;60.468;25.126;2023-07-29T08:31:33;1.17;;;0.50;;
14975;SDS011;7584;60.468;25.126;2023-07-29T08:33:59;1.52;;;0.70;;
14975;SDS011;7584;60.468;25.126;2023-07-29T08:36:24;1.20;;;0.60;;
14975;SDS011;7584;60.468;25.126;2023-07-29T08:38:50;1.73;;;0.60;;
14975;SDS011;7584;60.468;25.126;2023-07-29T08:46:43;1.63;;;0.70;;
14975;SDS011;7584;60.468;25.126;2023-07-29T08:49:08;0.82;;;0.60;;
14975;SDS011;7584;60.468;25.126;2023-07-29T08:51:36;1.42;;;0.80;;
14975;SDS011;7584;60.468;25.126;2023-07-29T08:54:01;1.00;;;0.38;;
14975;SDS011;7584;60.468;25.126;2023-07-29T08:56:27;3.25;;;1.95;;
14975;SDS011;7584;60.468;25.126;2023-07-29T08:58:53;1.10;;;0.70;;
14975;SDS011;7584;60.468;25.126;2023-07-29T09:01:18;3.28;;;1.10;;
14975;SDS011;7584;60.468;25.126;2023-07-29T09:03:44;3.33;;;0.80;;
14975;SDS011;7584;60.468;25.126;2023-07-29T09:06:09;1.65;;;0.80;;
14975;SDS011;7584;60.468;25.126;2023-07-29T09:08:34;0.73;;;0.63;;
14975;SDS011;7584;60.468;25.126;2023-07-29T09:11:00;3.30;;;1.40;;
14975;SDS011;7584;60.468;25.126;2023-07-29T09:13:26;0.95;;;0.68;;
14975;SDS011;7584;60.468;25.126;2023-07-29T09:15:54;1.13;;;0.60;;
14975;SDS011;7584;60.468;25.126;2023-07-29T09:18:19;3.13;;;0.80;;
14975;SDS011;7584;60.468;25.126;2023-07-29T09:20:48;1.15;;;0.60;;
14975;SDS011;7584;60.468;25.126;2023-07-29T09:23:14;1.60;;;0.80;;
14975;SDS011;7584;60.468;25.126;2023-07-29T09:25:39;2.35;;;1.00;;
14975;SDS011;7584;60.468;25.126;2023-07-29T09:28:09;1.88;;;0.70;;
14975;SDS011;7584;60.468;25.126;2023-07-29T09:30:35;1.58;;;0.60;;
14975;SDS011;7584;60.468;25.126;2023-07-29T09:33:01;1.50;;;0.90;;
14975;SDS011;7584;60.468;25.126;2023-07-29T09:35:27;0.88;;;0.57;;
14975;SDS011;7584;60.468;25.126;2023-07-29T09:37:53;1.25;;;0.80;;
14975;SDS011;7584;60.468;25.126;2023-07-29T09:40:18;0.88;;;0.60;;
14975;SDS011;7584;60.468;25.126;2023-07-29T09:42:50;1.33;;;0.70;;
14975;SDS011;7584;60.468;25.126;2023-07-29T09:45:22;2.85;;;0.80;;
14975;SDS011;7584;60.468;25.126;2023-07-29T09:47:48;1.08;;;0.63;;
14975;SDS011;7584;60.468;25.126;2023-07-29T09:50:14;1.80;;;0.65;;
14975;SDS011;7584;60.468;25.126;2023-07-29T09:52:39;1.00;;;0.45;;
14975;SDS011;7584;60.468;25.126;2023-07-29T09:55:04;1.63;;;0.80;;
14975;SDS011;7584;60.468;25.126;2023-07-29T09:57:31;3.25;;;0.75;;
14975;SDS011;7584;60.468;25.126;2023-07-29T09:59:57;2.22;;;0.98;;
14975;SDS011;7584;60.468;25.126;2023-07-29T10:02:22;2.13;;;1.20;;
14975;SDS011;7584;60.468;25.126;2023-07-29T10:04:48;1.30;;;0.85;;
14975;SDS011;7584;60.468;25.126;2023-07-29T10:07:14;1.48;;;1.00;;
14975;SDS011;7584;60.468;25.126;2023-07-29T10:09:39;2.53;;;1.00;;
14975;SDS011;7584;60.468;25.126;2023-07-29T10:12:08;2.85;;;1.00;;
14975;SDS011;7584;60.468;25.126;2023-07-29T10:14:34;1.67;;;1.00;;
14975;SDS011;7584;60.468;25.126;2023-07-29T10:17:00;3.20;;;0.77;;
14975;SDS011;7584;60.468;25.126;2023-07-29T10:19:25;2.40;;;0.80;;
14975;SDS011;7584;60.468;25.126;2023-07-29T10:21:51;1.10;;;0.80;;
14975;SDS011;7584;60.468;25.126;2023-07-29T10:24:18;2.47;;;0.98;;
14975;SDS011;7584;60.468;25.126;2023-07-29T10:26:45;1.55;;;0.90;;
14975;SDS011;7584;60.468;25.126;2023-07-29T10:29:11;1.42;;;0.90;;
14975;SDS011;7584;60.468;25.126;2023-07-29T10:31:37;1.58;;;1.17;;
14975;SDS011;7584;60.468;25.126;2023-07-29T10:34:03;1.90;;;0.90;;
14975;SDS011;7584;60.468;25.126;2023-07-29T10:36:29;1.63;;;0.77;;
14975;SDS011;7584;60.468;25.126;2023-07-29T10:38:54;2.50;;;1.20;;
14975;SDS011;7584;60.468;25.126;2023-07-29T10:41:19;1.25;;;0.85;;
14975;SDS011;7584;60.468;25.126;2023-07-29T10:43:45;1.45;;;0.90;;
14975;SDS011;7584;60.468;25.126;2023-07-29T10:51:22;2.92;;;1.25;;
14975;SDS011;7584;60.468;25.126;2023-07-29T10:53:51;2.70;;;1.40;;
14975;SDS011;7584;60.468;25.126;2023-07-29T10:56:24;4.07;;;1.38;;
14975;SDS011;7584;60.468;25.126;2023-07-29T10:58:49;3.72;;;1.70;;
14975;SDS011;7584;60.468;25.126;2023-07-29T11:01:25;1.30;;;1.17;;
14975;SDS011;7584;60.468;25.126;2023-07-29T11:07:01;2.95;;;1.25;;
14975;SDS011;7584;60.468;25.126;2023-07-29T11:12:50;5.32;;;2.13;;
14975;SDS011;7584;60.468;25.126;2023-07-29T11:14:50;2.25;;;1.52;;
14975;SDS011;7584;60.468;25.126;2023-07-29T11:17:15;4.13;;;1.40;;
14975;SDS011;7584;60.468;25.126;2023-07-29T11:19:41;2.42;;;1.33;;
14975;SDS011;7584;60.468;25.126;2023-07-29T11:22:06;5.60;;;1.27;;
14975;SDS011;7584;60.468;25.126;2023-07-29T11:24:31;3.17;;;1.17;;
14975;SDS011;7584;60.468;25.126;2023-07-29T11:26:57;5.13;;;1.38;;
14975;SDS011;7584;60.468;25.126;2023-07-29T11:29:22;2.85;;;1.60;;
14975;SDS011;7584;60.468;25.126;2023-07-29T11:31:47;2.13;;;1.13;;
14975;SDS011;7584;60.468;25.126;2023-07-29T11:34:13;2.63;;;1.05;;
14975;SDS011;7584;60.468;25.126;2023-07-29T11:36:45;2.58;;;1.20;;
14975;SDS011;7584;60.468;25.126;2023-07-29T11:39:10;4.00;;;1.23;;
14975;SDS011;7584;60.468;25.126;2023-07-29T11:41:36;3.70;;;1.10;;
14975;SDS011;7584;60.468;25.126;2023-07-29T11:44:02;1.58;;;0.80;;
14975;SDS011;7584;60.468;25.126;2023-07-29T11:46:27;3.65;;;1.40;;
14975;SDS011;7584;60.468;25.126;2023-07-29T11:48:53;1.58;;;1.05;;
14975;SDS011;7584;60.468;25.126;2023-07-29T11:51:19;2.20;;;0.90;;
14975;SDS011;7584;60.468;25.126;2023-07-29T11:53:44;3.13;;;1.05;;
14975;SDS011;7584;60.468;25.126;2023-07-29T11:56:10;8.23;;;1.35;;
14975;SDS011;7584;60.468;25.126;2023-07-29T11:58:36;2.28;;;1.30;;
14975;SDS011;7584;60.468;25.126;2023-07-29T12:01:02;2.58;;;1.08;;
14975;SDS011;7584;60.468;25.126;2023-07-29T12:03:28;1.60;;;1.20;;
14975;SDS011;7584;60.468;25.126;2023-07-29T12:05:54;2.15;;;1.08;;
14975;SDS011;7584;60.468;25.126;2023-07-29T12:08:19;3.03;;;1.40;;
14975;SDS011;7584;60.468;25.126;2023-07-29T12:10:44;1.92;;;0.90;;
14975;SDS011;7584;60.468;25.126;2023-07-29T12:13:10;4.47;;;1.42;;
14975;SDS011;7584;60.468;25.126;2023-07-29T12:15:37;3.55;;;1.33;;
14975;SDS011;7584;60.468;25.126;2023-07-29T12:18:02;1.30;;;1.10;;
14975;SDS011;7584;60.468;25.126;2023-07-29T12:20:29;2.22;;;1.63;;
14975;SDS011;7584;60.468;25.126;2023-07-29T12:22:58;1.95;;;1.20;;
14975;SDS011;7584;60.468;25.126;2023-07-29T12:25:24;4.60;;;1.75;;
14975;SDS011;7584;60.468;25.126;2023-07-29T12:27:50;3.65;;;1.60;;
14975;SDS011;7584;60.468;25.126;2023-07-29T12:30:16;3.33;;;1.48;;
14975;SDS011;7584;60.468;25.126;2023-07-29T12:32:42;3.03;;;1.65;;
14975;SDS011;7584;60.468;25.126;2023-07-29T12:35:09;2.53;;;1.40;;
14975;SDS011;7584;60.468;25.126;2023-07-29T12:37:35;1.88;;;1.25;;
14975;SDS011;7584;60.468;25.126;2023-07-29T12:40:01;4.35;;;1.70;;
14975;SDS011;7584;60.468;25.126;2023-07-29T12:42:26;2.10;;;1.75;;
14975;SDS011;7584;60.468;25.126;2023-07-29T12:44:51;1.50;;;1.40;;
14975;SDS011;7584;60.468;25.126;2023-07-29T12:47:17;2.03;;;1.55;;
14975;SDS011;7584;60.468;25.126;2023-07-29T12:49:42;1.83;;;1.40;;
14975;SDS011;7584;60.468;25.126;2023-07-29T12:52:07;4.15;;;1.98;;
14975;SDS011;7584;60.468;25.126;2023-07-29T12:54:33;2.85;;;1.60;;
14975;SDS011;7584;60.468;25.126;2023-07-29T12:56:58;4.25;;;1.70;;
14975;SDS011;7584;60.468;25.126;2023-07-29T12:59:23;2.33;;;1.40;;
14975;SDS011;7584;60.468;25.126;2023-07-29T13:01:49;2.47;;;1.33;;
14975;SDS011;7584;60.468;25.126;2023-07-29T13:04:14;2.90;;;1.60;;
14975;SDS011;7584;60.468;25.126;2023-07-29T13:06:39;2.90;;;1.73;;
14975;SDS011;7584;60.468;25.126;2023-07-29T13:09:04;3.17;;;1.63;;
14975;SDS011;7584;60.468;25.126;2023-07-29T13:11:30;1.90;;;1.80;;
14975;SDS011;7584;60.468;25.126;2023-07-29T13:13:57;2.40;;;1.35;;
14975;SDS011;7584;60.468;25.126;2023-07-29T13:16:23;2.08;;;1.40;;
14975;SDS011;7584;60.468;25.126;2023-07-29T13:18:48;3.63;;;1.40;;
14975;SDS011;7584;60.468;25.126;2023-07-29T13:21:13;2.00;;;1.70;;
14975;SDS011;7584;60.468;25.126;2023-07-29T13:23:38;2.33;;;1.50;;
14975;SDS011;7584;60.468;25.126;2023-07-29T13:26:04;2.22;;;1.70;;
14975;SDS011;7584;60.468;25.126;2023-07-29T13:28:29;1.70;;;1.55;;
14975;SDS011;7584;60.468;25.126;2023-07-29T13:30:54;2.22;;;1.58;;
14975;SDS011;7584;60.468;25.126;2023-07-29T13:33:19;4.43;;;2.40;;
14975;SDS011;7584;60.468;25.126;2023-07-29T13:35:45;3.00;;;1.90;;
14975;SDS011;7584;60.468;25.126;2023-07-29T13:38:10;3.90;;;1.80;;
14975;SDS011;7584;60.468;25.126;2023-07-29T13:40:36;2.42;;;1.52;;
14975;SDS011;7584;60.468;25.126;2023-07-29T13:43:01;2.40;;;1.57;;
14975;SDS011;7584;60.468;25.126;2023-07-29T13:45:27;2.73;;;2.43;;
14975;SDS011;7584;60.468;25.126;2023-07-29T13:47:52;3.80;;;2.72;;
14975;SDS011;7584;60.468;25.126;2023-07-29T13:50:17;3.20;;;2.00;;
14975;SDS011;7584;60.468;25.126;2023-07-29T13:52:43;3.55;;;1.92;;
14975;SDS011;7584;60.468;25.126;2023-07-29T13:55:08;3.60;;;1.90;;
14975;SDS011;7584;60.468;25.126;2023-07-29T13:57:33;2.53;;;1.83;;
14975;SDS011;7584;60.468;25.126;2023-07-29T13:59:59;3.28;;;2.15;;
14975;SDS011;7584;60.468;25.126;2023-07-29T14:02:24;2.88;;;1.90;;
14975;SDS011;7584;60.468;25.126;2023-07-29T14:04:51;2.23;;;1.60;;
14975;SDS011;7584;60.468;25.126;2023-07-29T14:07:17;4.10;;;2.10;;
14975;SDS011;7584;60.468;25.126;2023-07-29T14:09:42;2.97;;;2.00;;
14975;SDS011;7584;60.468;25.126;2023-07-29T14:12:08;2.38;;;1.80;;
14975;SDS011;7584;60.468;25.126;2023-07-29T14:14:37;3.15;;;1.73;;
14975;SDS011;7584;60.468;25.126;2023-07-29T14:17:02;2.10;;;1.50;;
14975;SDS011;7584;60.468;25.126;2023-07-29T14:19:27;1.73;;;1.60;;
14975;SDS011;7584;60.468;25.126;2023-07-29T14:21:53;1.98;;;1.70;;
14975;SDS011;7584;60.468;25.126;2023-07-29T14:24:18;2.75;;;2.05;;
14975;SDS011;7584;60.468;25.126;2023-07-29T14:26:44;3.78;;;2.17;;
14975;SDS011;7584;60.468;25.126;2023-07-29T14:29:10;3.05;;;2.08;;
14975;SDS011;7584;60.468;25.126;2023-07-29T14:31:35;3.65;;;1.98;;
14975;SDS011;7584;60.468;25.126;2023-07-29T14:34:00;3.33;;;2.57;;
14975;SDS011;7584;60.468;25.126;2023-07-29T14:36:26;2.60;;;1.73;;
14975;SDS011;7584;60.468;25.126;2023-07-29T14:38:51;2.72;;;1.67;;
14975;SDS011;7584;60.468;25.126;2023-07-29T14:41:17;2.17;;;1.70;;
14975;SDS011;7584;60.468;25.126;2023-07-29T14:43:42;3.60;;;1.87;;
14975;SDS011;7584;60.468;25.126;2023-07-29T14:46:08;2.38;;;1.90;;
14975;SDS011;7584;60.468;25.126;2023-07-29T14:48:33;4.60;;;2.57;;
14975;SDS011;7584;60.468;25.126;2023-07-29T14:50:58;2.93;;;2.10;;
14975;SDS011;7584;60.468;25.126;2023-07-29T14:53:23;5.07;;;2.23;;
14975;SDS011;7584;60.468;25.126;2023-07-29T14:55:50;3.23;;;1.83;;
14975;SDS011;7584;60.468;25.126;2023-07-29T14:58:15;3.80;;;2.07;;
14975;SDS011;7584;60.468;25.126;2023-07-29T15:00:40;2.47;;;1.80;;
14975;SDS011;7584;60.468;25.126;2023-07-29T15:03:06;3.78;;;1.90;;
14975;SDS011;7584;60.468;25.126;2023-07-29T15:05:32;4.97;;;2.20;;